createdAt,value
2023-02-03T00:00:58.109Z,4.80
2023-02-03T00:03:26.238Z,3.97
2023-02-03T00:05:55.078Z,5.27
2023-02-03T00:08:24.339Z,7.50
2023-02-03T00:10:52.588Z,4.60
2023-02-03T00:13:21.147Z,4.10
2023-02-03T00:15:50.737Z,4.10
2023-02-03T00:18:18.889Z,4.70
2023-02-03T00:20:47.102Z,7.23
2023-02-03T00:23:15.298Z,6.77
2023-02-03T00:25:43.445Z,4.80
2023-02-03T00:28:11.669Z,4.60
2023-02-03T00:30:40.083Z,5.43
2023-02-03T00:33:09.787Z,4.23
2023-02-03T00:35:40.319Z,4.20
2023-02-03T00:38:08.387Z,4.20
2023-02-03T00:40:36.498Z,3.67
2023-02-03T00:43:04.596Z,6.97
2023-02-03T00:45:32.731Z,4.20
2023-02-03T00:48:00.908Z,8.00
2023-02-03T00:50:30.588Z,7.10
2023-02-03T00:52:59.851Z,6.37
2023-02-03T00:55:28.164Z,4.30
2023-02-03T00:57:56.267Z,3.90
2023-02-03T01:00:25.050Z,6.07
2023-02-03T01:02:53.434Z,4.23
2023-02-03T01:05:21.511Z,3.47
2023-02-03T01:07:51.165Z,4.00
2023-02-03T01:10:19.397Z,4.77
2023-02-03T01:12:47.561Z,3.50
2023-02-03T01:15:15.844Z,8.43
2023-02-03T01:17:44.190Z,4.13
2023-02-03T01:20:14.022Z,8.70
2023-02-03T01:22:42.115Z,6.30
2023-02-03T01:25:12.658Z,6.37
2023-02-03T01:27:40.865Z,4.80
2023-02-03T01:30:09.887Z,4.20
2023-02-03T01:32:38.230Z,6.80
2023-02-03T01:35:06.721Z,5.33
2023-02-03T01:37:34.856Z,8.00
2023-02-03T01:40:02.998Z,4.03
2023-02-03T01:42:34.860Z,4.67
2023-02-03T01:45:02.953Z,4.37
2023-02-03T01:47:34.405Z,4.50
2023-02-03T01:50:10.708Z,9.90
2023-02-03T01:52:40.577Z,4.17
2023-02-03T01:55:14.325Z,3.77
2023-02-03T01:57:49.176Z,7.27
2023-02-03T02:00:17.963Z,7.60
2023-02-03T02:02:49.170Z,4.93
2023-02-03T02:05:24.708Z,4.23
2023-02-03T02:07:53.534Z,6.80
2023-02-03T02:10:21.752Z,8.80
2023-02-03T02:12:51.648Z,4.43
2023-02-03T02:15:24.595Z,3.67
2023-02-03T02:18:14.607Z,3.63
2023-02-03T02:21:24.350Z,3.63
2023-02-03T02:24:23.247Z,4.50
2023-02-03T02:26:59.072Z,4.40
2023-02-03T02:30:20.659Z,4.20
2023-02-03T02:33:03.499Z,9.10
2023-02-03T02:35:46.590Z,2.73
2023-02-03T02:38:22.279Z,4.53
2023-02-03T02:40:55.084Z,2.90
2023-02-03T02:43:30.343Z,4.33
2023-02-03T02:46:04.090Z,5.00
2023-02-03T02:48:39.538Z,5.70
2023-02-03T02:51:12.390Z,3.43
2023-02-03T02:53:44.603Z,4.17
2023-02-03T02:56:15.643Z,4.03
2023-02-03T02:58:48.715Z,6.10
2023-02-03T03:01:18.095Z,4.37
2023-02-03T03:03:48.000Z,5.03
2023-02-03T03:06:20.869Z,3.33
2023-02-03T03:08:55.564Z,3.00
2023-02-03T03:11:26.330Z,3.30
2023-02-03T03:13:56.856Z,2.93
2023-02-03T03:16:27.414Z,5.40
2023-02-03T03:19:00.911Z,3.43
2023-02-03T03:21:33.797Z,4.13
2023-02-03T03:24:08.640Z,5.33
2023-02-03T03:26:40.239Z,3.40
2023-02-03T03:29:15.489Z,4.80
2023-02-03T03:31:44.491Z,4.10
2023-02-03T03:34:16.035Z,5.20
2023-02-03T03:36:47.671Z,3.23
2023-02-03T03:39:24.203Z,5.20
2023-02-03T03:42:00.110Z,5.07
2023-02-03T03:44:32.449Z,4.50
2023-02-03T03:47:08.850Z,4.37
2023-02-03T03:49:42.274Z,4.73
2023-02-03T03:52:11.892Z,7.70
2023-02-03T03:54:42.918Z,5.47
2023-02-03T03:57:17.282Z,3.87
2023-02-03T03:59:48.866Z,7.67
2023-02-03T04:02:20.367Z,5.90
2023-02-03T04:04:51.086Z,9.13
2023-02-03T04:07:20.346Z,4.10
2023-02-03T04:09:48.688Z,5.20
2023-02-03T04:12:24.203Z,6.20
2023-02-03T04:14:52.367Z,4.93
2023-02-03T04:17:20.715Z,4.00
2023-02-03T04:19:50.639Z,4.87
2023-02-03T04:22:18.851Z,4.27
2023-02-03T04:24:47.089Z,4.70
2023-02-03T04:27:15.211Z,4.90
2023-02-03T04:29:43.534Z,6.17
2023-02-03T04:32:11.861Z,5.83
2023-02-03T04:34:40.065Z,4.60
2023-02-03T04:37:09.915Z,5.00
2023-02-03T04:39:38.107Z,8.43
2023-02-03T04:42:06.412Z,9.97
2023-02-03T04:44:34.542Z,6.60
2023-02-03T04:47:02.798Z,5.07
2023-02-03T04:49:30.917Z,4.80
2023-02-03T04:51:59.467Z,9.87
2023-02-03T04:54:29.114Z,4.70
2023-02-03T04:56:57.390Z,8.33
2023-02-03T04:59:25.512Z,8.60
2023-02-03T05:01:54.052Z,4.00
2023-02-03T05:04:22.207Z,6.20
2023-02-03T05:06:50.440Z,4.30
2023-02-03T05:09:18.750Z,4.73
2023-02-03T05:11:48.372Z,5.40
2023-02-03T05:14:16.703Z,4.77
2023-02-03T05:16:46.200Z,6.23
2023-02-03T05:19:14.940Z,4.37
2023-02-03T05:21:43.092Z,4.90
2023-02-03T05:24:12.469Z,5.63
2023-02-03T05:26:40.597Z,5.90
2023-02-03T05:29:11.831Z,5.30
2023-02-03T05:31:40.200Z,5.63
2023-02-03T05:34:08.622Z,5.37
2023-02-03T05:36:36.739Z,5.33
2023-02-03T05:39:05.232Z,4.70
2023-02-03T05:41:50.992Z,3.67
2023-02-03T05:44:20.860Z,4.90
2023-02-03T05:46:49.810Z,5.47
2023-02-03T05:49:18.564Z,6.97
2023-02-03T05:51:47.343Z,7.50
2023-02-03T05:54:15.730Z,7.43
2023-02-03T05:56:43.909Z,8.50
2023-02-03T05:59:12.087Z,13.90
2023-02-03T06:01:41.865Z,9.07
2023-02-03T06:04:10.347Z,8.30
2023-02-03T06:06:38.662Z,9.27
2023-02-03T06:09:09.227Z,7.77
2023-02-03T06:11:37.634Z,6.90
2023-02-03T06:14:06.166Z,10.03
2023-02-03T06:16:34.378Z,6.87
2023-02-03T06:19:03.988Z,4.67
2023-02-03T06:21:32.147Z,8.00
2023-02-03T06:24:00.357Z,5.20
2023-02-03T06:26:28.453Z,5.93
2023-02-03T06:28:56.540Z,5.20
2023-02-03T06:31:24.869Z,6.20
2023-02-03T06:33:53.085Z,5.37
2023-02-03T06:36:22.735Z,7.50
2023-02-03T06:38:51.200Z,10.67
2023-02-03T06:41:19.425Z,8.73
2023-02-03T06:43:47.621Z,6.37
2023-02-03T06:46:15.777Z,6.07
2023-02-03T06:48:44.180Z,7.60
2023-02-03T06:51:12.336Z,7.40
2023-02-03T06:53:41.837Z,8.70
2023-02-03T06:56:10.221Z,7.63
2023-02-03T06:58:38.366Z,8.90
2023-02-03T07:01:06.746Z,10.50
2023-02-03T07:03:34.854Z,5.30
2023-02-03T07:06:03.062Z,5.53
2023-02-03T07:08:31.386Z,6.73
2023-02-03T07:11:00.901Z,5.20
2023-02-03T07:13:29.275Z,7.30
2023-02-03T07:15:57.530Z,6.70
2023-02-03T07:21:15.406Z,5.27
2023-02-03T07:23:43.882Z,6.03
2023-02-03T07:26:13.400Z,5.23
2023-02-03T07:28:41.696Z,6.00
2023-02-03T07:31:10.671Z,7.63
2023-02-03T07:33:39.388Z,6.17
2023-02-03T07:36:09.593Z,6.23
2023-02-03T07:38:38.958Z,5.33
2023-02-03T07:41:07.872Z,6.10
2023-02-03T07:43:37.725Z,8.23
2023-02-03T07:46:06.452Z,14.70
2023-02-03T07:48:34.639Z,5.93
2023-02-03T07:51:02.987Z,8.23
2023-02-03T07:53:31.490Z,11.67
2023-02-03T07:56:01.670Z,12.37
2023-02-03T07:58:30.342Z,9.90
2023-02-03T08:01:00.200Z,5.40
2023-02-03T08:03:28.501Z,5.03
2023-02-03T08:05:56.683Z,5.37
2023-02-03T08:08:24.870Z,5.60
2023-02-03T08:10:53.103Z,5.60
2023-02-03T08:13:21.214Z,4.40
2023-02-03T08:15:49.701Z,4.87
2023-02-03T08:18:19.994Z,6.43
2023-02-03T08:20:49.109Z,7.50
2023-02-03T08:23:17.422Z,9.57
2023-02-03T08:25:45.609Z,5.07
2023-02-03T08:28:13.872Z,6.70
2023-02-03T08:30:42.120Z,5.10
2023-02-03T08:33:10.294Z,9.53
2023-02-03T08:35:40.316Z,5.03
2023-02-03T08:38:08.480Z,3.93
2023-02-03T08:40:36.714Z,5.23
2023-02-03T08:43:04.954Z,4.63
2023-02-03T08:45:33.416Z,4.60
2023-02-03T08:48:01.484Z,3.63
2023-02-03T08:50:31.389Z,4.93
2023-02-03T08:53:01.223Z,3.67
2023-02-03T08:55:29.332Z,3.10
2023-02-03T08:57:57.490Z,7.60
2023-02-03T09:00:25.981Z,3.00
2023-02-03T09:02:54.286Z,6.73
2023-02-03T09:05:22.477Z,5.10
2023-02-03T09:07:50.686Z,4.10
2023-02-03T09:10:20.452Z,4.40
2023-02-03T09:12:48.634Z,6.77
2023-02-03T09:15:16.913Z,3.57
2023-02-03T09:17:45.424Z,10.43
2023-02-03T09:20:15.159Z,3.30
2023-02-03T09:22:43.443Z,3.17
2023-02-03T09:25:11.828Z,5.83
2023-02-03T09:27:41.395Z,5.80
2023-02-03T09:30:10.629Z,4.33
2023-02-03T09:32:39.132Z,2.87
2023-02-03T09:35:07.993Z,3.67
2023-02-03T09:37:37.021Z,4.50
2023-02-03T09:40:06.614Z,3.67
2023-02-03T09:43:03.313Z,3.60
2023-02-03T09:45:32.264Z,5.07
2023-02-03T09:48:07.536Z,3.90
2023-02-03T09:50:37.952Z,5.70
2023-02-03T09:53:14.219Z,4.83
2023-02-03T09:55:44.334Z,3.90
2023-02-03T09:58:15.761Z,4.43
2023-02-03T10:00:45.860Z,3.70
2023-02-03T10:03:26.626Z,3.03
2023-02-03T10:06:21.701Z,9.43
2023-02-03T10:09:02.792Z,5.37
2023-02-03T10:11:46.504Z,3.70
2023-02-03T10:14:33.192Z,2.83
2023-02-03T10:17:23.863Z,4.17
2023-02-03T10:19:56.937Z,3.80
2023-02-03T10:22:29.945Z,3.10
2023-02-03T10:25:02.155Z,4.03
2023-02-03T10:27:33.351Z,5.43
2023-02-03T10:30:07.841Z,3.70
2023-02-03T10:32:37.914Z,3.20
2023-02-03T10:35:12.342Z,3.90
2023-02-03T10:37:45.504Z,5.20
2023-02-03T10:40:15.614Z,2.57
2023-02-03T10:43:02.659Z,6.80
2023-02-03T10:45:37.989Z,3.90
2023-02-03T10:48:10.058Z,3.00
2023-02-03T10:50:43.739Z,3.93
2023-02-03T10:53:24.194Z,3.47
2023-02-03T10:56:02.466Z,3.30
2023-02-03T10:58:33.455Z,4.30
2023-02-03T11:01:11.683Z,5.20
2023-02-03T11:03:42.710Z,4.63
2023-02-03T11:06:13.402Z,2.67
2023-02-03T11:08:44.513Z,4.07
2023-02-03T11:11:16.460Z,3.13
2023-02-03T11:13:44.645Z,4.10
2023-02-03T11:16:17.236Z,4.27
2023-02-03T11:18:53.422Z,4.20
2023-02-03T11:21:23.872Z,4.53
2023-02-03T11:23:56.705Z,3.17
2023-02-03T11:26:29.424Z,3.40
2023-02-03T11:29:00.901Z,5.07
2023-02-03T11:31:32.840Z,5.07
2023-02-03T11:34:04.676Z,4.40
2023-02-03T11:36:35.443Z,4.67
2023-02-03T11:39:13.036Z,5.63
2023-02-03T11:41:41.782Z,4.90
2023-02-03T11:44:14.402Z,3.97
2023-02-03T11:46:44.930Z,3.50
2023-02-03T11:49:34.661Z,2.90
2023-02-03T11:52:17.995Z,3.30
2023-02-03T11:54:55.738Z,2.80
2023-02-03T11:57:35.283Z,4.90
2023-02-03T12:00:21.102Z,3.67
2023-02-03T12:03:15.922Z,3.10
2023-02-03T12:06:00.677Z,3.40
2023-02-03T12:08:45.536Z,2.70
2023-02-03T12:11:28.829Z,3.43
2023-02-03T12:14:09.391Z,2.90
2023-02-03T12:17:06.105Z,2.80
2023-02-03T12:19:47.556Z,5.70
2023-02-03T12:22:25.287Z,3.53
2023-02-03T12:25:00.834Z,2.80
2023-02-03T12:27:45.312Z,6.87
2023-02-03T12:30:21.876Z,4.47
2023-02-03T12:32:52.911Z,6.93
2023-02-03T12:35:26.749Z,4.60
2023-02-03T12:38:02.093Z,3.93
2023-02-03T12:40:37.535Z,4.03
2023-02-03T12:43:29.617Z,7.13
2023-02-03T12:46:04.995Z,4.40
2023-02-03T12:48:46.436Z,4.87
2023-02-03T12:51:22.940Z,6.43
2023-02-03T12:53:58.514Z,4.43
2023-02-03T12:56:31.038Z,11.20
2023-02-03T12:59:05.278Z,3.30
2023-02-03T13:01:38.005Z,3.30
2023-02-03T13:04:12.295Z,3.07
2023-02-03T13:06:50.475Z,3.63
2023-02-03T13:09:29.829Z,3.73
2023-02-03T13:12:05.492Z,4.33
2023-02-03T13:14:38.713Z,3.60
2023-02-03T13:17:14.609Z,3.60
2023-02-03T13:19:47.753Z,3.23
2023-02-03T13:22:18.455Z,6.60
2023-02-03T13:24:51.749Z,3.77
2023-02-03T13:27:39.570Z,3.70
2023-02-03T13:30:33.942Z,5.37
2023-02-03T13:33:36.474Z,3.73
2023-02-03T13:36:18.374Z,3.57
2023-02-03T13:39:07.608Z,3.80
2023-02-03T13:41:42.225Z,31.13
2023-02-03T13:44:15.072Z,4.63
2023-02-03T13:46:43.942Z,6.10
2023-02-03T13:49:24.586Z,10.70
2023-02-03T13:51:53.084Z,6.93
2023-02-03T13:54:29.931Z,3.97
2023-02-03T13:57:02.455Z,3.53
2023-02-03T13:59:41.186Z,4.30
2023-02-03T14:02:43.947Z,7.33
2023-02-03T14:05:40.311Z,6.80
2023-02-03T14:08:54.187Z,5.73
2023-02-03T14:11:45.848Z,5.87
2023-02-03T14:14:51.217Z,6.07
2023-02-03T14:17:58.609Z,4.50
2023-02-03T14:21:11.136Z,10.23
2023-02-03T14:23:53.784Z,4.27
2023-02-03T14:26:30.919Z,4.93
2023-02-03T14:29:01.829Z,5.73
2023-02-03T14:31:30.099Z,11.93
2023-02-03T14:34:13.478Z,5.20
2023-02-03T14:36:50.619Z,9.07
2023-02-03T14:39:56.355Z,6.60
2023-02-03T14:42:45.661Z,6.30
2023-02-03T14:45:31.165Z,6.47
2023-02-03T14:48:17.032Z,4.93
2023-02-03T14:50:59.812Z,4.97
2023-02-03T14:53:50.728Z,5.23
2023-02-03T14:56:30.426Z,4.60
2023-02-03T14:59:04.048Z,6.30
2023-02-03T15:02:05.113Z,5.47
2023-02-03T15:04:34.773Z,7.90
2023-02-03T15:07:02.920Z,7.20
2023-02-03T15:09:36.074Z,6.57
2023-02-03T15:12:17.271Z,4.97
2023-02-03T15:14:45.418Z,5.53
2023-02-03T15:17:22.592Z,5.10
2023-02-03T15:19:52.744Z,3.23
2023-02-03T15:22:22.501Z,9.07
2023-02-03T15:24:53.080Z,4.87
2023-02-03T15:27:24.455Z,3.90
2023-02-03T15:29:52.870Z,3.73
2023-02-03T15:32:29.079Z,2.77
2023-02-03T15:34:59.959Z,1.80
2023-02-03T15:37:33.690Z,3.40
2023-02-03T15:40:05.897Z,2.20
2023-02-03T15:42:39.240Z,1.90
2023-02-03T15:45:23.780Z,2.13
2023-02-03T15:47:56.185Z,5.27
2023-02-03T15:50:36.101Z,3.03
2023-02-03T15:53:08.138Z,4.90
2023-02-03T15:55:40.615Z,11.60
2023-02-03T15:58:20.178Z,9.07
2023-02-03T16:00:51.782Z,9.20
2023-02-03T16:03:27.042Z,13.20
2023-02-03T16:05:56.767Z,12.37
2023-02-03T16:08:41.911Z,9.90
2023-02-03T16:11:28.012Z,7.20
2023-02-03T16:13:57.626Z,12.33
2023-02-03T16:16:29.469Z,11.97
2023-02-03T16:19:00.130Z,10.87
2023-02-03T16:21:36.128Z,7.23
2023-02-03T16:24:06.425Z,7.10
2023-02-03T16:26:36.806Z,18.60
2023-02-03T16:29:32.076Z,12.30
2023-02-03T16:32:18.333Z,12.20
2023-02-03T16:35:05.014Z,14.40
2023-02-03T16:38:01.749Z,22.83
2023-02-03T16:40:47.286Z,15.77
2023-02-03T16:43:34.731Z,25.47
2023-02-03T16:46:20.830Z,20.97
2023-02-03T16:49:06.395Z,20.10
2023-02-03T16:51:41.068Z,16.23
2023-02-03T16:54:14.214Z,12.00
2023-02-03T16:56:43.024Z,9.30
2023-02-03T16:59:11.204Z,7.30
2023-02-03T17:01:39.406Z,12.33
2023-02-03T17:04:08.221Z,14.53
2023-02-03T17:06:39.021Z,11.47
2023-02-03T17:09:07.537Z,14.50
2023-02-03T17:11:37.112Z,18.67
2023-02-03T17:14:05.326Z,14.77
2023-02-03T17:16:33.968Z,11.80
2023-02-03T17:19:02.701Z,13.30
2023-02-03T17:21:31.116Z,17.57
2023-02-03T17:23:59.348Z,18.60
2023-02-03T17:26:27.841Z,18.70
2023-02-03T17:29:02.991Z,21.47
2023-02-03T17:31:31.916Z,25.50
2023-02-03T17:34:00.705Z,30.53
2023-02-03T17:36:28.931Z,27.83
2023-02-03T17:55:34.662Z,28.73
2023-02-03T17:58:02.973Z,27.03
2023-02-03T18:00:32.801Z,20.37
2023-02-03T18:03:00.987Z,20.77
2023-02-03T18:05:29.653Z,16.97
2023-02-03T18:08:01.113Z,16.63
2023-02-03T18:10:34.633Z,15.87
2023-02-03T18:13:03.222Z,16.30
2023-02-03T18:15:33.173Z,15.63
2023-02-03T18:18:01.282Z,19.77
2023-02-03T18:20:29.743Z,15.70
2023-02-03T18:22:57.930Z,15.70
2023-02-03T18:25:26.147Z,14.97
2023-02-03T18:27:54.425Z,12.73
2023-02-03T18:30:22.635Z,13.53
2023-02-03T18:32:53.479Z,12.83
2023-02-03T18:35:21.577Z,8.57
2023-02-03T18:37:49.863Z,8.60
2023-02-03T18:40:18.673Z,8.53
2023-02-03T18:42:46.824Z,9.13
2023-02-03T18:45:14.998Z,7.50
2023-02-03T18:47:43.359Z,10.47
2023-02-03T18:50:12.972Z,7.60
2023-02-03T18:52:41.262Z,9.83
2023-02-03T18:55:10.452Z,9.50
2023-02-03T18:57:38.570Z,11.03
2023-02-03T19:00:08.210Z,11.80
2023-02-03T19:02:36.978Z,10.83
2023-02-03T19:05:06.659Z,17.93
2023-02-03T19:07:36.182Z,14.17
2023-02-03T19:10:04.980Z,15.33
2023-02-03T19:12:33.057Z,16.40
2023-02-03T19:15:01.201Z,11.40
2023-02-03T19:17:29.347Z,6.40
2023-02-03T19:19:57.413Z,6.07
2023-02-03T19:22:25.530Z,4.60
2023-02-03T19:24:55.917Z,5.63
2023-02-03T19:27:24.083Z,8.80
2023-02-03T19:29:52.275Z,6.87
2023-02-03T19:32:20.535Z,5.10
2023-02-03T19:34:48.635Z,5.77
2023-02-03T19:37:17.064Z,7.17
2023-02-03T19:39:47.950Z,9.00
2023-02-03T19:42:17.495Z,9.63
2023-02-03T19:44:45.822Z,9.03
2023-02-03T19:47:13.972Z,12.10
2023-02-03T19:49:42.130Z,7.40
2023-02-03T19:52:10.427Z,8.87
2023-02-03T19:54:38.532Z,13.67
2023-02-03T19:57:06.666Z,11.40
2023-02-03T19:59:36.386Z,12.30
2023-02-03T20:02:13.681Z,13.30
2023-02-03T20:04:42.342Z,15.87
2023-02-03T20:07:10.601Z,11.90
2023-02-03T20:09:38.775Z,9.83
2023-02-03T20:12:07.241Z,8.07
2023-02-03T20:14:36.880Z,7.13
2023-02-03T20:17:06.273Z,13.63
2023-02-03T20:19:34.446Z,12.37
2023-02-03T20:22:02.649Z,11.70
2023-02-03T20:24:30.904Z,7.60
2023-02-03T20:26:59.229Z,7.70
2023-02-03T20:29:27.602Z,10.37
2023-02-03T20:31:58.802Z,10.50
2023-02-03T20:34:27.543Z,9.47
2023-02-03T20:36:58.610Z,12.23
2023-02-03T20:39:27.828Z,10.47
2023-02-03T20:41:56.092Z,12.17
2023-02-03T20:44:24.297Z,9.67
2023-02-03T20:46:55.901Z,9.70
2023-02-03T20:49:26.017Z,11.53
2023-02-03T20:51:54.295Z,7.23
2023-02-03T20:54:23.506Z,8.30
2023-02-03T20:56:51.660Z,8.20
2023-02-03T20:59:20.679Z,8.77
2023-02-03T21:01:50.641Z,12.50
2023-02-03T21:04:37.382Z,9.33
2023-02-03T21:07:15.048Z,11.70
2023-02-03T21:09:43.187Z,10.33
2023-02-03T21:12:13.133Z,8.00
2023-02-03T21:14:44.036Z,14.03
2023-02-03T21:17:20.199Z,12.03
2023-02-03T21:19:48.818Z,10.97
2023-02-03T21:22:21.587Z,18.60
2023-02-03T21:24:53.071Z,16.90
2023-02-03T21:27:27.243Z,12.47
2023-02-03T21:29:57.467Z,12.87
2023-02-03T21:32:35.338Z,12.87
2023-02-03T21:35:03.410Z,10.80
2023-02-03T21:37:41.571Z,12.97
2023-02-03T21:40:21.696Z,11.03
2023-02-03T21:42:49.952Z,11.87
2023-02-03T21:45:45.784Z,12.33
2023-02-03T21:48:30.912Z,25.97
2023-02-03T21:51:03.059Z,12.03
2023-02-03T21:53:35.770Z,10.30
2023-02-03T21:56:22.469Z,17.63
2023-02-03T21:58:52.108Z,17.27
2023-02-03T22:01:23.085Z,18.20
2023-02-03T22:03:52.655Z,14.50
2023-02-03T22:06:27.098Z,10.30
2023-02-03T22:08:58.870Z,13.90
2023-02-03T22:11:29.244Z,12.30
2023-02-03T22:13:58.250Z,13.10
2023-02-03T22:16:29.069Z,15.60
2023-02-03T22:18:58.470Z,13.93
2023-02-03T22:21:28.713Z,13.47
2023-02-03T22:23:58.409Z,13.00
2023-02-03T22:26:26.555Z,14.83
2023-02-03T22:28:55.006Z,13.90
2023-02-03T22:31:23.659Z,11.80
2023-02-03T22:33:51.867Z,16.43
2023-02-03T22:36:22.269Z,20.53
2023-02-03T22:38:50.760Z,18.63
2023-02-03T22:41:21.075Z,16.27
2023-02-03T22:43:49.269Z,16.03
2023-02-03T22:46:17.524Z,21.43
2023-02-03T22:48:45.784Z,21.77
2023-02-03T22:51:13.966Z,19.63
2023-02-03T22:53:42.158Z,18.80
2023-02-03T22:56:10.556Z,19.17
2023-02-03T22:58:40.047Z,21.50
2023-02-03T23:01:08.256Z,24.67
2023-02-03T23:03:36.544Z,17.40
2023-02-03T23:06:04.900Z,18.80
2023-02-03T23:08:33.236Z,19.03
2023-02-03T23:11:01.433Z,20.53
2023-02-03T23:13:30.393Z,21.83
2023-02-03T23:15:59.984Z,21.00
2023-02-03T23:18:28.170Z,20.27
2023-02-03T23:20:56.339Z,17.17
2023-02-03T23:23:24.572Z,15.23
2023-02-03T23:25:52.801Z,14.77
2023-02-03T23:28:20.964Z,14.97
2023-02-03T23:30:49.353Z,16.07
2023-02-03T23:33:18.956Z,21.63
2023-02-03T23:35:46.181Z,20.00
2023-02-03T23:38:15.188Z,19.90
2023-02-03T23:40:43.533Z,15.40
2023-02-03T23:43:11.985Z,16.20
2023-02-03T23:45:40.143Z,14.90
2023-02-03T23:48:09.399Z,23.27
2023-02-03T23:50:39.106Z,19.23
2023-02-03T23:53:07.174Z,20.20
2023-02-03T23:55:36.484Z,17.83
2023-02-03T23:58:05.717Z,20.20
